Sunol, CA

6:45 PM PDT on August 28, 2015 (GMT -0700)
Sunol near railroad station | | Change Station
CLOSE
Current Station
Personal Weather Station
Location: Sunol, CA
Elevation: 256 ft
Nearby Weather Stations

Elev 256 ft 37.59 °N, 121.89 °W | Updated 10 minutes ago

Partly Cloudy
Partly Cloudy
86.4 °F
Feels Like 85 °F
N
7.8
Wind Variable Wind from NNW

Today
High -- | Low -- °F
--% Chance of Precip.
Yesterday
High -- | Low -- °F
Precip. -- in
6:34 AM 7:42 PM
Waxing Gibbous, 99% visible
Pressure 29.83 in
Visibility 10.0 miles
Clouds Clear
Heat Index 85 °F
Dew Point 56 °F
Humidity 36%
Rainfall 0.00 in
Snow Depth Not available.
UV 2 out of 12
Pollen 6.70 out of 12
Air Quality Not available.
Flu Activity Not available.
METAR KLVK 290053Z 30016KT 10SM CLR 32/09 A2984 RMK AO2 SLP100 T03170094
Pressure 29.83 in
Visibility 10.0 miles
Clouds Clear
Heat Index 85 °F
Dew Point 56 °F
Humidity 36%
Rainfall 0.00 in
Snow Depth Not available.
UV 2 out of 12
Pollen 6.70 out of 12
Air Quality Not available.
Flu Activity Not available.
METAR KLVK 290053Z 30016KT 10SM CLR 32/09 A2984 RMK AO2 SLP100 T03170094

10-Day Weather Forecast

×

Almanac

Astronomy

Aug. 28, 2015 Rise Set
Actual Time
Civil Twilight
Nautical Twilight
Astronomical Twilight
Moon
Length of Visible Light
Length of Day
Tomorrow will be .
, % of the Moon is Illuminated

Today's Extremes

State Highs State Lows

Community

WunderPhotos

Upload Photos

1,850,566 photos uploaded!

WunderBlogs® & News

Nearby

Air Quality

  Air Quality AQ Index Pollutant
Not available.

Snow Depth

Station Depth Elevation

Earthquake Activity

City Distance Mag. Time & Date
Minimum magnitude displayed is 2.5.

Coastal Water Temperatures

Place Temperature

Stations

Nearby Weather Stations

Station Location Temp. Windchill Dew Point Humidity Wind Precip. Elev Updated Type